PWSweather.com
Personal Weather Stations
Station Observations
IROGLAN40
AalgaardNO 4330

AalgaardNO 4330

Lat: 58.773, Lon: 5.846

Elevation: 326

Station Type: Davis Vanatge Pro2

www.mavahome.com

High Low Average
Temperature 34.2°F1.2°C 24.4°F-4.2°C 31.1°F-0.5°C
Dew Point 32.4°F0.2°C 22.9°F-5.1°C 29.4°F-1.4°C
Winds 2.3 mph 3.7 kmh Calm Calm Calm SECalm SE
Wind Gusts 3.5 mph5.6 kmh -- 1.0 mph1.6 kmh
Humidity 94% 92% 93%
Pressure 29.48 in998.3 mb 29.11 in985.8 mb -
Precipitation 0.02 in0.5 mm - -
Hour Temp Dew Point Humidity Winds Wind Gusts Pressure Precip Precip Rate Daily Precip Total
12:00 AM 33.0°F0.6°C 31.5°F-0.3°C 94% Calm Calm -- 29.11 in985.8 mb - 0.00 in0.0 mm 0.00 in0.0 mm
12:10 AM 33.0°F0.6°C 31.5°F-0.3°C 94% Calm Calm -- 29.11 in985.8 mb - 0.00 in0.0 mm 0.00 in0.0 mm
12:20 AM 32.9°F0.5°C 31.4°F-0.3°C 94% Calm Calm -- 29.11 in985.8 mb - 0.00 in0.0 mm 0.00 in0.0 mm
12:30 AM 32.9°F0.5°C 31.1°F-0.5°C 93% Calm Calm -- 29.11 in985.8 mb - 0.00 in0.0 mm 0.00 in0.0 mm
12:40 AM 32.8°F0.4°C 31.0°F-0.6°C 93% Calm Calm -- 29.12 in986.1 mb - 0.00 in0.0 mm 0.00 in0.0 mm
12:50 AM 32.7°F0.4°C 30.9°F-0.6°C 93% Calm Calm -- 29.12 in986.1 mb - 0.00 in0.0 mm 0.00 in0.0 mm
01:00 AM 32.6°F0.3°C 31.1°F-0.5°C 94% Calm Calm -- 29.12 in986.1 mb - 0.00 in0.0 mm 0.00 in0.0 mm
01:10 AM 32.6°F0.3°C 31.1°F-0.5°C 94% Calm Calm -- 29.13 in986.5 mb - 0.00 in0.0 mm 0.00 in0.0 mm
01:20 AM 32.6°F0.3°C 31.1°F-0.5°C 94% Calm Calm -- 29.13 in986.5 mb - 0.00 in0.0 mm 0.00 in0.0 mm
01:30 AM 32.7°F0.4°C 31.2°F-0.4°C 94% Calm Calm -- 29.13 in986.5 mb - 0.00 in0.0 mm 0.00 in0.0 mm
01:40 AM 32.8°F0.4°C 31.0°F-0.6°C 93% Calm Calm -- 29.13 in986.5 mb - 0.00 in0.0 mm 0.00 in0.0 mm
01:50 AM 32.8°F0.4°C 31.0°F-0.6°C 93% Calm Calm -- 29.13 in986.5 mb - 0.00 in0.0 mm 0.00 in0.0 mm
02:00 AM 32.8°F0.4°C 31.0°F-0.6°C 93% Calm Calm -- 29.14 in986.8 mb - 0.00 in0.0 mm 0.00 in0.0 mm
02:10 AM 32.8°F0.4°C 31.0°F-0.6°C 93% Calm Calm -- 29.14 in986.8 mb - 0.00 in0.0 mm 0.00 in0.0 mm
02:20 AM 32.8°F0.4°C 31.3°F-0.4°C 94% Calm Calm -- 29.14 in986.8 mb - 0.00 in0.0 mm 0.00 in0.0 mm
02:30 AM 32.7°F0.4°C 31.2°F-0.4°C 94% Calm Calm -- 29.14 in986.8 mb - 0.00 in0.0 mm 0.00 in0.0 mm
02:40 AM 32.8°F0.4°C 31.2°F-0.4°C 94% Calm Calm -- 29.14 in986.8 mb - 0.00 in0.0 mm 0.00 in0.0 mm
02:50 AM 32.7°F0.4°C 31.2°F-0.4°C 94% Calm Calm -- 29.15 in987.1 mb - 0.00 in0.0 mm 0.00 in0.0 mm
03:00 AM 32.7°F0.4°C 31.2°F-0.4°C 94% 1.2 mph SE1.9 kmh SE 1.2 mph1.9 kmh 29.15 in987.1 mb - 0.00 in0.0 mm 0.00 in0.0 mm
03:10 AM 32.8°F0.4°C 31.3°F-0.4°C 94% 1.2 mph SE1.9 kmh SE 2.3 mph3.7 kmh 29.16 in987.5 mb - 0.00 in0.0 mm 0.00 in0.0 mm
03:20 AM 32.8°F0.4°C 31.0°F-0.6°C 93% Calm Calm -- 29.16 in987.5 mb - 0.00 in0.0 mm 0.00 in0.0 mm
03:30 AM 32.8°F0.4°C 31.0°F-0.6°C 93% 1.2 mph SE1.9 kmh SE 3.5 mph5.6 kmh 29.16 in987.5 mb - 0.00 in0.0 mm 0.00 in0.0 mm
03:40 AM 32.8°F0.4°C 31.0°F-0.6°C 93% Calm Calm -- 29.16 in987.5 mb - 0.00 in0.0 mm 0.00 in0.0 mm
03:50 AM 32.8°F0.4°C 31.0°F-0.6°C 93% Calm Calm -- 29.16 in987.5 mb - 0.00 in0.0 mm 0.00 in0.0 mm
04:00 AM 32.8°F0.4°C 31.0°F-0.6°C 93% Calm Calm -- 29.17 in987.8 mb - 0.00 in0.0 mm 0.00 in0.0 mm
04:10 AM 32.8°F0.4°C 31.0°F-0.6°C 93% 1.2 mph SE1.9 kmh SE 2.3 mph3.7 kmh 29.16 in987.5 mb - 0.00 in0.0 mm 0.00 in0.0 mm
04:20 AM 32.8°F0.4°C 31.0°F-0.6°C 93% Calm Calm -- 29.18 in988.1 mb - 0.00 in0.0 mm 0.00 in0.0 mm
04:30 AM 32.8°F0.4°C 31.3°F-0.4°C 94% Calm Calm -- 29.18 in988.1 mb - 0.00 in0.0 mm 0.00 in0.0 mm
04:40 AM 32.6°F0.3°C 31.1°F-0.5°C 94% Calm Calm -- 29.18 in988.1 mb - 0.00 in0.0 mm 0.00 in0.0 mm
04:50 AM 32.6°F0.3°C 31.1°F-0.5°C 94% Calm Calm -- 29.18 in988.1 mb - 0.00 in0.0 mm 0.00 in0.0 mm
05:00 AM 32.6°F0.3°C 31.1°F-0.5°C 94% Calm Calm -- 29.19 in988.5 mb - 0.00 in0.0 mm 0.00 in0.0 mm
05:10 AM 32.6°F0.3°C 31.1°F-0.5°C 94% Calm Calm -- 29.19 in988.5 mb - 0.00 in0.0 mm 0.00 in0.0 mm
05:20 AM 32.5°F0.3°C 31.0°F-0.6°C 94% Calm Calm -- 29.19 in988.5 mb - 0.00 in0.0 mm 0.00 in0.0 mm
05:30 AM 32.4°F0.2°C 30.6°F-0.8°C 93% Calm Calm -- 29.20 in988.8 mb - 0.00 in0.0 mm 0.00 in0.0 mm
05:40 AM 32.2°F0.1°C 30.4°F-0.9°C 93% Calm Calm -- 29.20 in988.8 mb - 0.00 in0.0 mm 0.00 in0.0 mm
05:50 AM 32.1°F0.1°C 30.6°F-0.8°C 94% Calm Calm -- 29.20 in988.8 mb - 0.00 in0.0 mm 0.00 in0.0 mm
06:00 AM 32.2°F0.1°C 30.4°F-0.9°C 93% Calm Calm -- 29.20 in988.8 mb - 0.00 in0.0 mm 0.00 in0.0 mm
06:10 AM 32.3°F0.2°C 30.5°F-0.8°C 93% Calm Calm -- 29.20 in988.8 mb - 0.00 in0.0 mm 0.00 in0.0 mm
06:20 AM 32.4°F0.2°C 30.6°F-0.8°C 93% Calm Calm -- 29.20 in988.8 mb - 0.00 in0.0 mm 0.00 in0.0 mm
06:30 AM 32.6°F0.3°C 31.1°F-0.5°C 94% Calm Calm -- 29.21 in989.2 mb - 0.00 in0.0 mm 0.00 in0.0 mm
06:40 AM 32.6°F0.3°C 31.1°F-0.5°C 94% Calm Calm -- 29.21 in989.2 mb - 0.00 in0.0 mm 0.00 in0.0 mm
06:50 AM 32.6°F0.3°C 31.1°F-0.5°C 94% Calm Calm -- 29.21 in989.2 mb - 0.00 in0.0 mm 0.00 in0.0 mm
07:00 AM 32.7°F0.4°C 31.2°F-0.4°C 94% Calm Calm -- 29.21 in989.2 mb - 0.00 in0.0 mm 0.00 in0.0 mm
07:10 AM 32.8°F0.4°C 31.0°F-0.6°C 93% Calm Calm -- 29.21 in989.2 mb - 0.00 in0.0 mm 0.00 in0.0 mm
07:20 AM 32.9°F0.5°C 31.1°F-0.5°C 93% Calm Calm -- 29.22 in989.5 mb - 0.00 in0.0 mm 0.00 in0.0 mm
07:30 AM 33.1°F0.6°C 31.6°F-0.2°C 94% 1.2 mph SE1.9 kmh SE 3.5 mph5.6 kmh 29.22 in989.5 mb - 0.00 in0.0 mm 0.00 in0.0 mm
07:40 AM 32.9°F0.5°C 31.1°F-0.5°C 93% 1.2 mph E1.9 kmh E 1.2 mph1.9 kmh 29.22 in989.5 mb - 0.00 in0.0 mm 0.00 in0.0 mm
07:50 AM 32.8°F0.4°C 31.0°F-0.6°C 93% Calm Calm 1.2 mph1.9 kmh 29.22 in989.5 mb - 0.00 in0.0 mm 0.00 in0.0 mm
08:00 AM 32.8°F0.4°C 31.0°F-0.6°C 93% Calm Calm 1.2 mph1.9 kmh 29.22 in989.5 mb - 0.00 in0.0 mm 0.00 in0.0 mm
08:10 AM 32.9°F0.5°C 31.1°F-0.5°C 93% Calm Calm 1.2 mph1.9 kmh 29.22 in989.5 mb - 0.00 in0.0 mm 0.00 in0.0 mm
08:20 AM 33.1°F0.6°C 31.3°F-0.4°C 93% Calm Calm 2.3 mph3.7 kmh 29.22 in989.5 mb - 0.00 in0.0 mm 0.00 in0.0 mm
08:30 AM 33.2°F0.7°C 31.4°F-0.3°C 93% Calm Calm 2.3 mph3.7 kmh 29.23 in989.8 mb - 0.00 in0.0 mm 0.00 in0.0 mm
08:40 AM 33.3°F0.7°C 31.5°F-0.3°C 93% Calm Calm 2.3 mph3.7 kmh 29.23 in989.8 mb - 0.00 in0.0 mm 0.00 in0.0 mm
08:50 AM 33.4°F0.8°C 31.6°F-0.2°C 93% Calm Calm 1.2 mph1.9 kmh 29.23 in989.8 mb - 0.00 in0.0 mm 0.00 in0.0 mm
09:00 AM 33.4°F0.8°C 31.6°F-0.2°C 93% Calm Calm 1.2 mph1.9 kmh 29.23 in989.8 mb - 0.00 in0.0 mm 0.00 in0.0 mm
09:10 AM 33.5°F0.8°C 31.7°F-0.2°C 93% 1.2 mph E1.9 kmh E 2.3 mph3.7 kmh 29.24 in990.2 mb - 0.00 in0.0 mm 0.00 in0.0 mm
09:20 AM 33.5°F0.8°C 31.7°F-0.2°C 93% 1.2 mph E1.9 kmh E 1.2 mph1.9 kmh 29.24 in990.2 mb - 0.00 in0.0 mm 0.00 in0.0 mm
09:30 AM 33.3°F0.7°C 31.5°F-0.3°C 93% Calm Calm -- 29.25 in990.5 mb - 0.01 in0.3 mm 0.01 in0.3 mm
09:40 AM 33.0°F0.6°C 30.9°F-0.6°C 92% Calm Calm 1.2 mph1.9 kmh 29.25 in990.5 mb - 0.00 in0.0 mm 0.01 in0.3 mm
09:50 AM 32.7°F0.4°C 30.9°F-0.6°C 93% Calm Calm 2.3 mph3.7 kmh 29.25 in990.5 mb - 0.00 in0.0 mm 0.01 in0.3 mm
10:00 AM 32.4°F0.2°C 30.6°F-0.8°C 93% Calm Calm -- 29.25 in990.5 mb - 0.00 in0.0 mm 0.01 in0.3 mm
10:10 AM 32.0°F0.0°C 30.2°F-1.0°C 93% Calm Calm -- 29.26 in990.9 mb - 0.00 in0.0 mm 0.01 in0.3 mm
10:20 AM 32.2°F0.1°C 30.4°F-0.9°C 93% Calm Calm -- 29.26 in990.9 mb - 0.00 in0.0 mm 0.01 in0.3 mm
10:30 AM 32.3°F0.2°C 30.5°F-0.8°C 93% Calm Calm -- 29.27 in991.2 mb - 0.00 in0.0 mm 0.01 in0.3 mm
10:40 AM 32.4°F0.2°C 30.6°F-0.8°C 93% Calm Calm 1.2 mph1.9 kmh 29.27 in991.2 mb - 0.00 in0.0 mm 0.01 in0.3 mm
10:50 AM 32.2°F0.1°C 30.4°F-0.9°C 93% Calm Calm -- 29.27 in991.2 mb - 0.00 in0.0 mm 0.01 in0.3 mm
11:00 AM 32.1°F0.1°C 30.3°F-0.9°C 93% Calm Calm -- 29.28 in991.5 mb - 0.00 in0.0 mm 0.01 in0.3 mm
11:10 AM 32.4°F0.2°C 30.9°F-0.6°C 94% 1.2 mph SE1.9 kmh SE 1.2 mph1.9 kmh 29.28 in991.5 mb - 0.00 in0.0 mm 0.01 in0.3 mm
11:20 AM 32.5°F0.3°C 31.0°F-0.6°C 94% 1.2 mph SE1.9 kmh SE 1.2 mph1.9 kmh 29.28 in991.5 mb - 0.00 in0.0 mm 0.01 in0.3 mm
11:30 AM 32.7°F0.4°C 30.9°F-0.6°C 93% Calm Calm -- 29.29 in991.9 mb - 0.00 in0.0 mm 0.01 in0.3 mm
11:40 AM 32.7°F0.4°C 30.9°F-0.6°C 93% Calm Calm -- 29.29 in991.9 mb - 0.00 in0.0 mm 0.01 in0.3 mm
11:50 AM 32.9°F0.5°C 31.1°F-0.5°C 93% Calm Calm -- 29.29 in991.9 mb - 0.00 in0.0 mm 0.01 in0.3 mm
12:00 PM 33.0°F0.6°C 31.2°F-0.4°C 93% Calm Calm -- 29.30 in992.2 mb - 0.00 in0.0 mm 0.01 in0.3 mm
12:10 PM 33.2°F0.7°C 31.6°F-0.2°C 94% 1.2 mph SE1.9 kmh SE 2.3 mph3.7 kmh 29.30 in992.2 mb - 0.00 in0.0 mm 0.01 in0.3 mm
12:20 PM 33.7°F0.9°C 32.2°F0.1°C 94% 1.2 mph SSE1.9 kmh SSE 1.2 mph1.9 kmh 29.30 in992.2 mb - 0.00 in0.0 mm 0.01 in0.3 mm
12:30 PM 33.7°F0.9°C 31.9°F-0.1°C 93% 1.2 mph SSE1.9 kmh SSE 2.3 mph3.7 kmh 29.30 in992.2 mb - 0.00 in0.0 mm 0.01 in0.3 mm
12:40 PM 33.9°F1.1°C 32.1°F0.1°C 93% 1.2 mph SSE1.9 kmh SSE 1.2 mph1.9 kmh 29.30 in992.2 mb - 0.00 in0.0 mm 0.01 in0.3 mm
12:50 PM 34.0°F1.1°C 32.2°F0.1°C 93% 1.2 mph SSE1.9 kmh SSE 2.3 mph3.7 kmh 29.30 in992.2 mb - 0.00 in0.0 mm 0.01 in0.3 mm
01:00 PM 34.2°F1.2°C 32.4°F0.2°C 93% 2.3 mph S3.7 kmh S 3.5 mph5.6 kmh 29.31 in992.6 mb - 0.00 in0.0 mm 0.01 in0.3 mm
01:10 PM 34.1°F1.2°C 32.0°F0.0°C 92% 2.3 mph SSE3.7 kmh SSE 3.5 mph5.6 kmh 29.31 in992.6 mb - 0.00 in0.0 mm 0.01 in0.3 mm
01:20 PM 33.9°F1.1°C 31.8°F-0.1°C 92% Calm Calm 1.2 mph1.9 kmh 29.31 in992.6 mb - 0.00 in0.0 mm 0.01 in0.3 mm
01:30 PM 33.9°F1.1°C 31.8°F-0.1°C 92% Calm Calm -- 29.31 in992.6 mb - 0.00 in0.0 mm 0.01 in0.3 mm
01:40 PM 33.9°F1.1°C 31.8°F-0.1°C 92% 2.3 mph S3.7 kmh S 3.5 mph5.6 kmh 29.31 in992.6 mb - 0.00 in0.0 mm 0.01 in0.3 mm
01:50 PM 33.8°F1.0°C 31.7°F-0.2°C 92% 1.2 mph S1.9 kmh S 2.3 mph3.7 kmh 29.31 in992.6 mb - 0.00 in0.0 mm 0.01 in0.3 mm
02:00 PM 33.7°F0.9°C 31.6°F-0.2°C 92% 1.2 mph SSE1.9 kmh SSE 3.5 mph5.6 kmh 29.32 in992.9 mb - 0.00 in0.0 mm 0.01 in0.3 mm
02:10 PM 33.6°F0.9°C 31.5°F-0.3°C 92% 1.2 mph S1.9 kmh S 2.3 mph3.7 kmh 29.32 in992.9 mb - 0.00 in0.0 mm 0.01 in0.3 mm
02:20 PM 33.4°F0.8°C 31.4°F-0.3°C 92% 1.2 mph SSE1.9 kmh SSE 1.2 mph1.9 kmh 29.32 in992.9 mb - 0.00 in0.0 mm 0.01 in0.3 mm
02:30 PM 33.3°F0.7°C 31.2°F-0.4°C 92% Calm Calm 1.2 mph1.9 kmh 29.33 in993.2 mb - 0.00 in0.0 mm 0.01 in0.3 mm
02:40 PM 33.1°F0.6°C 31.0°F-0.6°C 92% 1.2 mph SSE1.9 kmh SSE 1.2 mph1.9 kmh 29.33 in993.2 mb - 0.00 in0.0 mm 0.01 in0.3 mm
02:50 PM 33.2°F0.7°C 31.1°F-0.5°C 92% Calm Calm 1.2 mph1.9 kmh 29.34 in993.6 mb - 0.00 in0.0 mm 0.01 in0.3 mm
03:00 PM 32.9°F0.5°C 30.8°F-0.7°C 92% 1.2 mph S1.9 kmh S 1.2 mph1.9 kmh 29.34 in993.6 mb - 0.00 in0.0 mm 0.01 in0.3 mm
03:10 PM 32.6°F0.3°C 30.5°F-0.8°C 92% Calm Calm 1.2 mph1.9 kmh 29.34 in993.6 mb - 0.00 in0.0 mm 0.01 in0.3 mm
03:20 PM 32.3°F0.2°C 30.3°F-0.9°C 92% Calm Calm 1.2 mph1.9 kmh 29.34 in993.6 mb - 0.01 in0.3 mm 0.02 in0.5 mm
03:30 PM 31.9°F-0.1°C 29.8°F-1.2°C 92% Calm Calm -- 29.35 in993.9 mb - 0.00 in0.0 mm 0.02 in0.5 mm
03:40 PM 31.9°F-0.1°C 30.1°F-1.1°C 93% 1.2 mph SE1.9 kmh SE 2.3 mph3.7 kmh 29.36 in994.2 mb - 0.00 in0.0 mm 0.02 in0.5 mm
03:50 PM 32.1°F0.1°C 30.0°F-1.1°C 92% 1.2 mph SSE1.9 kmh SSE 2.3 mph3.7 kmh 29.36 in994.2 mb - 0.00 in0.0 mm 0.02 in0.5 mm
04:00 PM 32.2°F0.1°C 30.2°F-1.0°C 92% Calm Calm 1.2 mph1.9 kmh 29.36 in994.2 mb - 0.00 in0.0 mm 0.02 in0.5 mm
04:10 PM 31.8°F-0.1°C 29.8°F-1.2°C 92% Calm Calm 1.2 mph1.9 kmh 29.36 in994.2 mb - 0.00 in0.0 mm 0.02 in0.5 mm
04:20 PM 30.9°F-0.6°C 28.8°F-1.8°C 92% Calm Calm -- 29.37 in994.6 mb - 0.00 in0.0 mm 0.02 in0.5 mm
04:30 PM 31.1°F-0.5°C 29.3°F-1.5°C 93% Calm Calm 1.2 mph1.9 kmh 29.37 in994.6 mb - 0.00 in0.0 mm 0.02 in0.5 mm
04:40 PM 31.5°F-0.3°C 29.7°F-1.3°C 93% Calm Calm 1.2 mph1.9 kmh 29.37 in994.6 mb - 0.00 in0.0 mm 0.02 in0.5 mm
04:50 PM 31.3°F-0.4°C 29.5°F-1.4°C 93% 1.2 mph SE1.9 kmh SE 2.3 mph3.7 kmh 29.37 in994.6 mb - 0.00 in0.0 mm 0.02 in0.5 mm
05:00 PM 31.5°F-0.3°C 29.7°F-1.3°C 93% 1.2 mph SSE1.9 kmh SSE 2.3 mph3.7 kmh 29.38 in994.9 mb - 0.00 in0.0 mm 0.02 in0.5 mm
05:10 PM 31.2°F-0.4°C 29.1°F-1.6°C 92% Calm Calm -- 29.38 in994.9 mb - 0.00 in0.0 mm 0.02 in0.5 mm
05:20 PM 30.9°F-0.6°C 29.1°F-1.6°C 93% Calm Calm 1.2 mph1.9 kmh 29.38 in994.9 mb - 0.00 in0.0 mm 0.02 in0.5 mm
05:30 PM 31.2°F-0.4°C 29.4°F-1.4°C 93% 1.2 mph SE1.9 kmh SE 1.2 mph1.9 kmh 29.38 in994.9 mb - 0.00 in0.0 mm 0.02 in0.5 mm
05:40 PM 31.3°F-0.4°C 29.5°F-1.4°C 93% Calm Calm 1.2 mph1.9 kmh 29.38 in994.9 mb - 0.00 in0.0 mm 0.02 in0.5 mm
05:50 PM 31.5°F-0.3°C 29.7°F-1.3°C 93% Calm Calm 1.2 mph1.9 kmh 29.39 in995.3 mb - 0.00 in0.0 mm 0.02 in0.5 mm
06:00 PM 31.3°F-0.4°C 29.2°F-1.6°C 92% Calm Calm -- 29.39 in995.3 mb - 0.00 in0.0 mm 0.02 in0.5 mm
06:10 PM 30.5°F-0.8°C 28.5°F-1.9°C 92% Calm Calm -- 29.39 in995.3 mb - 0.00 in0.0 mm 0.02 in0.5 mm
06:20 PM 29.2°F-1.6°C 27.2°F-2.7°C 92% Calm Calm -- 29.40 in995.6 mb - 0.00 in0.0 mm 0.02 in0.5 mm
06:30 PM 28.5°F-1.9°C 26.7°F-2.9°C 93% Calm Calm -- 29.40 in995.6 mb - 0.00 in0.0 mm 0.02 in0.5 mm
06:40 PM 29.8°F-1.2°C 28.3°F-2.1°C 94% Calm Calm -- 29.40 in995.6 mb - 0.00 in0.0 mm 0.02 in0.5 mm
06:50 PM 28.9°F-1.7°C 26.8°F-2.9°C 92% Calm Calm -- 29.40 in995.6 mb - 0.00 in0.0 mm 0.02 in0.5 mm
07:00 PM 27.8°F-2.3°C 25.8°F-3.4°C 92% Calm Calm 1.2 mph1.9 kmh 29.41 in995.9 mb - 0.00 in0.0 mm 0.02 in0.5 mm
07:10 PM 27.6°F-2.4°C 25.8°F-3.4°C 93% Calm Calm -- 29.41 in995.9 mb - 0.00 in0.0 mm 0.02 in0.5 mm
07:20 PM 27.1°F-2.7°C 25.3°F-3.7°C 93% Calm Calm -- 29.41 in995.9 mb - 0.00 in0.0 mm 0.02 in0.5 mm
07:30 PM 27.0°F-2.8°C 25.3°F-3.7°C 93% Calm Calm -- 29.42 in996.3 mb - 0.00 in0.0 mm 0.02 in0.5 mm
07:40 PM 26.8°F-2.9°C 25.0°F-3.9°C 93% Calm Calm -- 29.42 in996.3 mb - 0.00 in0.0 mm 0.02 in0.5 mm
07:50 PM 26.8°F-2.9°C 25.3°F-3.7°C 94% Calm Calm -- 29.42 in996.3 mb - 0.00 in0.0 mm 0.02 in0.5 mm
08:00 PM 26.7°F-2.9°C 24.9°F-3.9°C 93% Calm Calm -- 29.43 in996.6 mb - 0.00 in0.0 mm 0.02 in0.5 mm
08:10 PM 26.6°F-3.0°C 25.2°F-3.8°C 94% Calm Calm -- 29.43 in996.6 mb - 0.00 in0.0 mm 0.02 in0.5 mm
08:20 PM 26.6°F-3.0°C 25.1°F-3.8°C 94% Calm Calm -- 29.43 in996.6 mb - 0.00 in0.0 mm 0.02 in0.5 mm
08:30 PM 26.3°F-3.2°C 24.8°F-4.0°C 94% Calm Calm -- 29.43 in996.6 mb - 0.00 in0.0 mm 0.02 in0.5 mm
08:40 PM 26.1°F-3.3°C 24.6°F-4.1°C 94% Calm Calm -- 29.44 in997.0 mb - 0.00 in0.0 mm 0.02 in0.5 mm
08:50 PM 25.6°F-3.6°C 24.2°F-4.3°C 94% Calm Calm -- 29.44 in997.0 mb - 0.00 in0.0 mm 0.02 in0.5 mm
09:00 PM 25.8°F-3.4°C 24.3°F-4.3°C 94% Calm Calm -- 29.44 in997.0 mb - 0.00 in0.0 mm 0.02 in0.5 mm
09:10 PM 25.2°F-3.8°C 23.5°F-4.7°C 93% Calm Calm -- 29.44 in997.0 mb - 0.00 in0.0 mm 0.02 in0.5 mm
09:20 PM 25.2°F-3.8°C 23.7°F-4.6°C 94% Calm Calm -- 29.45 in997.3 mb - 0.00 in0.0 mm 0.02 in0.5 mm
09:30 PM 25.4°F-3.7°C 23.9°F-4.5°C 94% Calm Calm -- 29.45 in997.3 mb - 0.00 in0.0 mm 0.02 in0.5 mm
09:40 PM 25.1°F-3.8°C 23.6°F-4.7°C 94% Calm Calm -- 29.45 in997.3 mb - 0.00 in0.0 mm 0.02 in0.5 mm
09:50 PM 25.2°F-3.8°C 23.7°F-4.6°C 94% Calm Calm -- 29.45 in997.3 mb - 0.00 in0.0 mm 0.02 in0.5 mm
10:00 PM 25.0°F-3.9°C 23.5°F-4.7°C 94% Calm Calm -- 29.46 in997.6 mb - 0.00 in0.0 mm 0.02 in0.5 mm
10:10 PM 24.4°F-4.2°C 22.9°F-5.1°C 94% Calm Calm -- 29.46 in997.6 mb - 0.00 in0.0 mm 0.02 in0.5 mm
10:20 PM 24.6°F-4.1°C 23.1°F-4.9°C 94% Calm Calm -- 29.46 in997.6 mb - 0.00 in0.0 mm 0.02 in0.5 mm
10:30 PM 24.5°F-4.2°C 23.0°F-5.0°C 94% Calm Calm -- 29.46 in997.6 mb - 0.00 in0.0 mm 0.02 in0.5 mm
10:40 PM 24.6°F-4.1°C 23.1°F-4.9°C 94% Calm Calm -- 29.46 in997.6 mb - 0.00 in0.0 mm 0.02 in0.5 mm
10:50 PM 24.8°F-4.0°C 23.3°F-4.8°C 94% Calm Calm -- 29.47 in998.0 mb - 0.00 in0.0 mm 0.02 in0.5 mm
11:00 PM 25.1°F-3.8°C 23.6°F-4.7°C 94% Calm Calm -- 29.47 in998.0 mb - 0.00 in0.0 mm 0.02 in0.5 mm
11:10 PM 25.1°F-3.8°C 23.6°F-4.7°C 94% Calm Calm -- 29.47 in998.0 mb - 0.00 in0.0 mm 0.02 in0.5 mm
11:20 PM 25.2°F-3.8°C 23.7°F-4.6°C 94% Calm Calm 1.2 mph1.9 kmh 29.47 in998.0 mb - 0.00 in0.0 mm 0.02 in0.5 mm
11:30 PM 25.6°F-3.6°C 24.1°F-4.4°C 94% Calm Calm -- 29.47 in998.0 mb - 0.00 in0.0 mm 0.02 in0.5 mm
11:40 PM 25.5°F-3.6°C 24.0°F-4.4°C 94% Calm Calm -- 29.48 in998.3 mb - 0.00 in0.0 mm 0.02 in0.5 mm
11:50 PM 25.1°F-3.8°C 23.6°F-4.7°C 94% Calm Calm -- 29.48 in998.3 mb - 0.00 in0.0 mm 0.02 in0.5 mm